Time;durP1;ratioP1;P1;durP2;ratioP2;P2;SDS_P1;SDS_P2;PMS_P1;PMS_P2;Temp;Humidity;BMP_temperature;BMP_pressure;BME280_temperature;BME280_humidity;BME280_pressure;Samples;Min_cycle;Max_cycle;Signal;HPM_P1;HPM_P2
2024/01/30 00:01:57;;;;;;;10.40;7.05;;;;;;;;;;5029736;28;20030;-80
2024/01/30 00:04:22;;;;;;;11.80;7.45;;;;;;;;;;5029910;28;20021;-80
2024/01/30 00:06:49;;;;;;;11.18;7.60;;;;;;;;;;5029004;28;20492;-81
2024/01/30 00:09:15;;;;;;;12.35;7.80;;;;;;;;;;5027486;28;20027;-80
2024/01/30 00:11:40;;;;;;;12.35;8.13;;;;;;;;;;5024008;28;21537;-80
2024/01/30 00:14:05;;;;;;;11.20;7.68;;;;;;;;;;5024946;28;20032;-80
2024/01/30 00:16:31;;;;;;;11.77;7.78;;;;;;;;;;5030895;28;20043;-80
2024/01/30 00:18:57;;;;;;;10.82;7.55;;;;;;;;;;5032078;28;20083;-80
2024/01/30 00:21:23;;;;;;;11.02;7.32;;;;;;;;;;5036447;28;20121;-80
2024/01/30 00:23:48;;;;;;;11.13;7.20;;;;;;;;;;5022038;28;20033;-80
2024/01/30 00:26:17;;;;;;;11.15;7.38;;;;;;;;;;5030779;28;20049;-80
2024/01/30 00:28:42;;;;;;;10.57;6.85;;;;;;;;;;5021543;28;20025;-80
2024/01/30 00:31:12;;;;;;;11.23;6.90;;;;;;;;;;5027534;28;20025;-80
2024/01/30 00:33:37;;;;;;;12.45;7.18;;;;;;;;;;5035500;28;20032;-80
2024/01/30 00:36:03;;;;;;;10.20;7.80;;;;;;;;;;5031624;28;20029;-80
2024/01/30 00:38:28;;;;;;;9.82;6.57;;;;;;;;;;5030261;28;20022;-80
2024/01/30 00:40:54;;;;;;;11.05;7.53;;;;;;;;;;5034902;28;20151;-80
2024/01/30 00:43:21;;;;;;;11.13;7.22;;;;;;;;;;5026600;28;20396;-80
2024/01/30 00:45:46;;;;;;;12.48;7.38;;;;;;;;;;5039869;28;20039;-80
2024/01/30 00:48:12;;;;;;;9.55;7.45;;;;;;;;;;5031601;28;20013;-80
2024/01/30 00:50:37;;;;;;;11.38;7.60;;;;;;;;;;5032020;28;20380;-80
2024/01/30 00:53:03;;;;;;;10.68;7.25;;;;;;;;;;5032257;28;20095;-80
2024/01/30 00:55:28;;;;;;;10.90;7.30;;;;;;;;;;5028937;28;20040;-80
2024/01/30 00:57:53;;;;;;;9.57;6.72;;;;;;;;;;5029337;28;20033;-80
2024/01/30 01:00:20;;;;;;;11.20;7.13;;;;;;;;;;5030117;28;20037;-80
2024/01/30 01:02:46;;;;;;;11.50;7.30;;;;;;;;;;5038744;28;20029;-80
2024/01/30 01:05:12;;;;;;;9.95;7.00;;;;;;;;;;5026580;28;20455;-80
2024/01/30 01:07:37;;;;;;;14.05;7.13;;;;;;;;;;5030286;28;20058;-80
2024/01/30 01:10:03;;;;;;;10.07;6.57;;;;;;;;;;5031178;28;20380;-80
2024/01/30 01:12:29;;;;;;;13.02;7.03;;;;;;;;;;5033271;28;20030;-80
2024/01/30 01:14:54;;;;;;;11.23;7.28;;;;;;;;;;5030755;28;20036;-80
2024/01/30 01:17:20;;;;;;;9.45;6.25;;;;;;;;;;5030969;28;20040;-80
2024/01/30 01:19:45;;;;;;;9.10;6.10;;;;;;;;;;5033425;28;21525;-80
2024/01/30 01:22:11;;;;;;;10.50;6.78;;;;;;;;;;5027062;28;20094;-80
2024/01/30 01:24:36;;;;;;;10.23;6.38;;;;;;;;;;5031311;28;20399;-80
2024/01/30 01:27:02;;;;;;;11.20;6.75;;;;;;;;;;5038226;28;20483;-80
2024/01/30 01:29:30;;;;;;;10.43;6.80;;;;;;;;;;5030148;28;20044;-81
2024/01/30 01:31:56;;;;;;;9.20;6.35;;;;;;;;;;5023553;28;20084;-80
2024/01/30 01:34:21;;;;;;;11.05;6.50;;;;;;;;;;5031283;28;20394;-80
2024/01/30 01:36:47;;;;;;;12.88;7.20;;;;;;;;;;5026552;28;20108;-81
2024/01/30 01:39:12;;;;;;;11.02;7.00;;;;;;;;;;5032917;28;20156;-80
2024/01/30 01:41:38;;;;;;;10.65;6.47;;;;;;;;;;5032950;28;20033;-80
2024/01/30 01:44:03;;;;;;;10.60;7.07;;;;;;;;;;5023452;28;20391;-81
2024/01/30 01:46:35;;;;;;;11.07;7.20;;;;;;;;;;5032993;28;20029;-80
2024/01/30 01:49:02;;;;;;;9.75;7.18;;;;;;;;;;5022749;28;20025;-80
2024/01/30 01:51:30;;;;;;;9.90;6.68;;;;;;;;;;5024904;28;20112;-81
2024/01/30 01:54:00;;;;;;;13.65;7.25;;;;;;;;;;5029393;28;20030;-80
2024/01/30 01:56:26;;;;;;;9.80;6.78;;;;;;;;;;5023803;28;20030;-80
2024/01/30 01:58:54;;;;;;;12.05;7.10;;;;;;;;;;5028996;28;20025;-80
2024/01/30 02:01:22;;;;;;;12.48;7.63;;;;;;;;;;5026353;28;20030;-79
2024/01/30 02:03:47;;;;;;;10.48;6.88;;;;;;;;;;5035731;28;20029;-79
2024/01/30 02:06:16;;;;;;;9.82;6.22;;;;;;;;;;5028978;28;20031;-79
2024/01/30 02:08:41;;;;;;;10.38;7.22;;;;;;;;;;5031527;28;20029;-80
2024/01/30 02:11:07;;;;;;;10.13;7.05;;;;;;;;;;5028864;28;20030;-79
2024/01/30 02:13:32;;;;;;;10.40;7.00;;;;;;;;;;5038384;28;20582;-80
2024/01/30 02:15:58;;;;;;;11.55;6.80;;;;;;;;;;5030150;28;20027;-80
2024/01/30 02:18:24;;;;;;;13.73;7.50;;;;;;;;;;5026149;28;21005;-80
2024/01/30 02:20:53;;;;;;;12.70;7.20;;;;;;;;;;5026545;28;20103;-79
2024/01/30 02:23:19;;;;;;;11.02;6.97;;;;;;;;;;5031159;28;20046;-79
2024/01/30 02:25:46;;;;;;;8.90;6.75;;;;;;;;;;5029634;28;20380;-80
2024/01/30 02:28:12;;;;;;;10.90;7.13;;;;;;;;;;5034858;28;20025;-80
2024/01/30 02:30:38;;;;;;;10.23;6.72;;;;;;;;;;5028758;28;20033;-79
2024/01/30 02:33:04;;;;;;;13.27;7.10;;;;;;;;;;5032713;28;20155;-80
2024/01/30 02:35:29;;;;;;;13.65;7.55;;;;;;;;;;5024301;28;20120;-80
2024/01/30 02:37:55;;;;;;;12.05;7.20;;;;;;;;;;5020496;28;20109;-80
2024/01/30 02:41:14;;;;;;;11.65;7.00;;;;;;;;;;5028247;28;20159;-79
2024/01/30 02:43:43;;;;;;;10.25;6.63;;;;;;;;;;5016790;28;20474;-81
2024/01/30 02:46:08;;;;;;;9.98;6.40;;;;;;;;;;5031189;28;20034;-81
2024/01/30 02:48:34;;;;;;;12.95;6.93;;;;;;;;;;5030082;28;20084;-81
2024/01/30 02:50:59;;;;;;;10.90;6.80;;;;;;;;;;5024323;28;20025;-81
2024/01/30 02:53:24;;;;;;;11.82;7.07;;;;;;;;;;5025011;28;20036;-81
2024/01/30 02:55:50;;;;;;;11.98;6.82;;;;;;;;;;5025877;28;20147;-81
2024/01/30 02:58:15;;;;;;;9.30;6.75;;;;;;;;;;5027696;28;20036;-80
2024/01/30 03:00:41;;;;;;;10.57;7.20;;;;;;;;;;5026875;28;20580;-80
2024/01/30 03:03:06;;;;;;;9.93;7.22;;;;;;;;;;5026577;28;20686;-81
2024/01/30 03:05:31;;;;;;;9.95;6.97;;;;;;;;;;5034870;28;20079;-81
2024/01/30 03:07:58;;;;;;;11.18;7.28;;;;;;;;;;5030460;28;20064;-81
2024/01/30 03:10:24;;;;;;;10.15;7.32;;;;;;;;;;5028687;28;20488;-81
2024/01/30 03:12:49;;;;;;;10.90;7.00;;;;;;;;;;5024773;28;20079;-81
2024/01/30 03:15:15;;;;;;;11.25;7.13;;;;;;;;;;5031783;28;20037;-80
2024/01/30 03:17:41;;;;;;;10.57;7.22;;;;;;;;;;5033729;28;20112;-81
2024/01/30 03:20:07;;;;;;;9.68;6.90;;;;;;;;;;5029343;28;20040;-81
2024/01/30 03:22:32;;;;;;;13.27;6.97;;;;;;;;;;5030186;28;20037;-81
2024/01/30 03:24:58;;;;;;;11.10;6.78;;;;;;;;;;5030219;28;20618;-81
2024/01/30 03:27:23;;;;;;;10.13;6.97;;;;;;;;;;5028404;28;20037;-81
2024/01/30 03:29:48;;;;;;;12.40;6.82;;;;;;;;;;5020982;28;20491;-81
2024/01/30 03:32:14;;;;;;;11.35;7.30;;;;;;;;;;5027714;28;20025;-80
2024/01/30 03:34:42;;;;;;;14.20;7.50;;;;;;;;;;5023853;28;20090;-81
2024/01/30 03:37:09;;;;;;;9.68;6.65;;;;;;;;;;5024851;28;20404;-81
2024/01/30 03:39:36;;;;;;;12.43;7.38;;;;;;;;;;5030664;28;20037;-81
2024/01/30 03:42:02;;;;;;;9.80;6.93;;;;;;;;;;5028174;28;20033;-81
2024/01/30 03:44:27;;;;;;;9.95;6.97;;;;;;;;;;5024506;28;20060;-81
2024/01/30 03:46:53;;;;;;;12.07;6.95;;;;;;;;;;5033691;28;20468;-81
2024/01/30 03:49:18;;;;;;;8.93;6.45;;;;;;;;;;5027114;28;20854;-81
2024/01/30 03:51:44;;;;;;;10.93;7.10;;;;;;;;;;5025402;28;20024;-81
2024/01/30 03:54:10;;;;;;;10.07;7.03;;;;;;;;;;5026608;28;20049;-81
2024/01/30 03:56:35;;;;;;;11.18;6.63;;;;;;;;;;5026384;28;20040;-81
2024/01/30 03:59:02;;;;;;;10.13;6.53;;;;;;;;;;5025316;28;20029;-81
2024/01/30 04:01:29;;;;;;;10.32;6.70;;;;;;;;;;5025929;28;20035;-81
2024/01/30 04:03:54;;;;;;;11.00;7.05;;;;;;;;;;5028493;28;20029;-81
2024/01/30 04:06:20;;;;;;;11.98;7.00;;;;;;;;;;5030838;28;20037;-81
2024/01/30 04:08:45;;;;;;;11.75;6.80;;;;;;;;;;5031863;28;20029;-81
2024/01/30 04:11:12;;;;;;;9.80;6.53;;;;;;;;;;5032723;28;20268;-81
2024/01/30 04:13:37;;;;;;;10.77;7.07;;;;;;;;;;5035140;28;20164;-81
2024/01/30 04:16:03;;;;;;;11.40;7.03;;;;;;;;;;5033637;28;20475;-81
2024/01/30 04:18:29;;;;;;;9.60;6.50;;;;;;;;;;5033734;28;20041;-81
2024/01/30 04:20:55;;;;;;;9.63;7.00;;;;;;;;;;5033520;28;20025;-81
2024/01/30 04:23:21;;;;;;;11.05;6.85;;;;;;;;;;5034675;28;20041;-81
2024/01/30 04:25:46;;;;;;;11.75;7.18;;;;;;;;;;5033855;28;20140;-81
2024/01/30 04:28:12;;;;;;;13.23;7.05;;;;;;;;;;5035605;28;20418;-81
2024/01/30 04:30:40;;;;;;;11.02;6.93;;;;;;;;;;5032541;28;20029;-80
2024/01/30 04:33:06;;;;;;;11.13;6.97;;;;;;;;;;5036319;28;20043;-81
2024/01/30 04:35:31;;;;;;;10.82;6.82;;;;;;;;;;5031177;28;20394;-81
2024/01/30 04:37:57;;;;;;;9.93;6.25;;;;;;;;;;5031195;28;20116;-81
2024/01/30 04:40:24;;;;;;;9.82;6.78;;;;;;;;;;5031018;28;20037;-82
2024/01/30 04:42:50;;;;;;;12.05;6.75;;;;;;;;;;5030631;28;20032;-81
2024/01/30 04:45:15;;;;;;;10.90;6.57;;;;;;;;;;5033171;28;20036;-81
2024/01/30 04:47:42;;;;;;;11.43;7.03;;;;;;;;;;5029872;28;20492;-81
2024/01/30 04:50:08;;;;;;;13.20;7.10;;;;;;;;;;5030576;28;20021;-81
2024/01/30 04:52:37;;;;;;;9.68;6.70;;;;;;;;;;5028083;28;20038;-82
2024/01/30 04:55:02;;;;;;;10.52;6.95;;;;;;;;;;5029316;28;20120;-81
2024/01/30 04:57:33;;;;;;;9.68;6.35;;;;;;;;;;5033763;28;20420;-81
2024/01/30 04:59:59;;;;;;;9.55;6.45;;;;;;;;;;5032761;28;20037;-82
2024/01/30 05:02:24;;;;;;;10.70;6.80;;;;;;;;;;5029316;28;20037;-81
2024/01/30 05:04:50;;;;;;;11.43;7.38;;;;;;;;;;5028730;28;20424;-81
2024/01/30 05:07:17;;;;;;;11.13;6.68;;;;;;;;;;5030746;28;20509;-81
2024/01/30 05:09:42;;;;;;;11.23;6.13;;;;;;;;;;5015880;28;20033;-81
2024/01/30 05:12:08;;;;;;;11.05;7.07;;;;;;;;;;5027244;28;20373;-81
2024/01/30 05:14:33;;;;;;;11.70;6.63;;;;;;;;;;5037887;28;20116;-81
2024/01/30 05:17:03;;;;;;;10.43;6.28;;;;;;;;;;5033226;28;21214;-81
2024/01/30 05:19:28;;;;;;;9.60;6.38;;;;;;;;;;5030065;28;20029;-81
2024/01/30 05:21:54;;;;;;;9.63;6.82;;;;;;;;;;5034058;28;20438;-81
2024/01/30 05:24:19;;;;;;;12.13;6.95;;;;;;;;;;5029131;28;20383;-81
2024/01/30 05:26:45;;;;;;;10.05;6.03;;;;;;;;;;5038500;28;20036;-81
2024/01/30 05:29:10;;;;;;;13.05;6.22;;;;;;;;;;5029652;28;20018;-81
2024/01/30 05:31:36;;;;;;;11.25;6.70;;;;;;;;;;5025088;28;20070;-81
2024/01/30 05:34:02;;;;;;;9.27;6.32;;;;;;;;;;5034020;28;20480;-81
2024/01/30 05:36:27;;;;;;;10.02;6.40;;;;;;;;;;5019767;28;20500;-81
2024/01/30 05:38:53;;;;;;;9.85;6.40;;;;;;;;;;5023698;28;20041;-81
2024/01/30 05:41:18;;;;;;;8.77;6.18;;;;;;;;;;5024786;28;20033;-81
2024/01/30 05:43:44;;;;;;;11.60;6.07;;;;;;;;;;5031898;28;20036;-81
2024/01/30 05:46:11;;;;;;;9.63;6.18;;;;;;;;;;5028967;28;20080;-82
2024/01/30 05:48:37;;;;;;;8.45;6.03;;;;;;;;;;5029262;28;20065;-81
2024/01/30 05:51:03;;;;;;;10.73;6.60;;;;;;;;;;5027163;28;20029;-81
2024/01/30 05:53:29;;;;;;;8.93;6.28;;;;;;;;;;5031164;28;20025;-81
2024/01/30 05:55:54;;;;;;;8.82;5.85;;;;;;;;;;5027039;28;20041;-81
2024/01/30 05:58:21;;;;;;;9.93;6.28;;;;;;;;;;5023505;28;20622;-81
2024/01/30 06:00:47;;;;;;;9.20;6.47;;;;;;;;;;5026599;28;20028;-81
2024/01/30 06:03:12;;;;;;;10.00;6.10;;;;;;;;;;5032420;28;20032;-81
2024/01/30 06:05:38;;;;;;;9.77;6.85;;;;;;;;;;5027002;28;20113;-82
2024/01/30 06:08:03;;;;;;;9.60;6.20;;;;;;;;;;5035418;28;20076;-82
2024/01/30 06:10:30;;;;;;;9.75;5.82;;;;;;;;;;5030760;28;20364;-82
2024/01/30 06:12:57;;;;;;;9.68;6.40;;;;;;;;;;5033334;28;20025;-81
2024/01/30 06:15:22;;;;;;;10.00;6.47;;;;;;;;;;5032242;28;20037;-81
2024/01/30 06:17:48;;;;;;;12.60;6.32;;;;;;;;;;5029780;28;20033;-81
2024/01/30 06:20:13;;;;;;;11.98;6.32;;;;;;;;;;5030179;28;20387;-80
2024/01/30 06:22:39;;;;;;;9.55;6.18;;;;;;;;;;5029726;28;20139;-80
2024/01/30 06:25:04;;;;;;;10.70;6.07;;;;;;;;;;5031133;28;20545;-79
2024/01/30 06:27:30;;;;;;;10.10;6.25;;;;;;;;;;5026581;28;20022;-80
2024/01/30 06:29:55;;;;;;;11.10;6.03;;;;;;;;;;5027408;28;20034;-80
2024/01/30 06:32:21;;;;;;;9.75;6.15;;;;;;;;;;5030875;28;20029;-80
2024/01/30 06:34:46;;;;;;;9.02;5.78;;;;;;;;;;5029339;28;20025;-80
2024/01/30 06:37:12;;;;;;;9.93;6.25;;;;;;;;;;5022807;28;20045;-80
2024/01/30 06:39:37;;;;;;;9.43;6.53;;;;;;;;;;5016576;28;20091;-80
2024/01/30 06:42:03;;;;;;;8.93;6.00;;;;;;;;;;5022918;28;20037;-80
2024/01/30 06:44:28;;;;;;;10.35;5.82;;;;;;;;;;5027297;28;20645;-80
2024/01/30 06:46:54;;;;;;;9.52;5.93;;;;;;;;;;5027891;28;20539;-80
2024/01/30 06:49:19;;;;;;;11.38;6.22;;;;;;;;;;5026338;28;20025;-80
2024/01/30 06:51:44;;;;;;;10.75;6.10;;;;;;;;;;5024104;28;20399;-80
2024/01/30 06:54:10;;;;;;;9.32;5.82;;;;;;;;;;5020935;28;20395;-81
2024/01/30 06:56:37;;;;;;;8.27;5.78;;;;;;;;;;5030820;28;20033;-80
2024/01/30 06:59:06;;;;;;;10.27;5.88;;;;;;;;;;5025565;28;20030;-80
2024/01/30 07:01:32;;;;;;;8.88;5.97;;;;;;;;;;5023103;28;20124;-80
2024/01/30 07:03:58;;;;;;;11.55;6.30;;;;;;;;;;5028115;28;20108;-80
2024/01/30 07:06:23;;;;;;;9.82;5.40;;;;;;;;;;5025726;28;20460;-80
2024/01/30 07:08:50;;;;;;;8.48;5.30;;;;;;;;;;5030340;28;20384;-80
2024/01/30 07:11:21;;;;;;;9.80;5.82;;;;;;;;;;5028797;28;20116;-80
2024/01/30 07:13:47;;;;;;;11.45;6.03;;;;;;;;;;5029787;28;20036;-80
2024/01/30 07:16:12;;;;;;;9.00;6.22;;;;;;;;;;5026070;28;20025;-80
2024/01/30 07:18:38;;;;;;;10.15;6.32;;;;;;;;;;5027605;28;20079;-80
2024/01/30 07:21:04;;;;;;;9.52;5.70;;;;;;;;;;5029681;28;20021;-80
2024/01/30 07:23:29;;;;;;;8.50;5.80;;;;;;;;;;5031067;28;20094;-80
2024/01/30 07:25:55;;;;;;;12.02;5.90;;;;;;;;;;5027433;28;20368;-80
2024/01/30 07:28:20;;;;;;;10.05;6.40;;;;;;;;;;5034793;28;20432;-81
2024/01/30 07:30:47;;;;;;;10.75;6.00;;;;;;;;;;5025466;28;20025;-81
2024/01/30 07:33:12;;;;;;;9.55;6.25;;;;;;;;;;5032352;28;20029;-82
2024/01/30 07:35:38;;;;;;;10.43;5.95;;;;;;;;;;5022085;28;20036;-81
2024/01/30 07:38:03;;;;;;;9.88;6.22;;;;;;;;;;5030270;28;20419;-81
2024/01/30 07:40:29;;;;;;;10.27;6.43;;;;;;;;;;5027985;28;20041;-81
2024/01/30 07:42:55;;;;;;;9.93;5.93;;;;;;;;;;5028123;28;20025;-81
2024/01/30 07:45:24;;;;;;;10.07;6.40;;;;;;;;;;5030308;28;20032;-81
2024/01/30 07:47:50;;;;;;;10.07;6.05;;;;;;;;;;5028570;28;20021;-81
2024/01/30 07:50:16;;;;;;;9.60;6.45;;;;;;;;;;5043132;28;20021;-81
2024/01/30 07:52:42;;;;;;;10.07;6.30;;;;;;;;;;5035265;28;20415;-81
2024/01/30 07:55:08;;;;;;;9.52;6.18;;;;;;;;;;5030395;28;20079;-81
2024/01/30 07:57:34;;;;;;;12.32;5.95;;;;;;;;;;5035998;28;20394;-81
2024/01/30 07:59:59;;;;;;;9.45;6.50;;;;;;;;;;5035170;28;20112;-81
2024/01/30 08:02:25;;;;;;;12.35;6.82;;;;;;;;;;5031383;28;20399;-81
2024/01/30 08:04:50;;;;;;;11.07;6.82;;;;;;;;;;5027816;28;20446;-81
2024/01/30 08:07:17;;;;;;;9.82;6.57;;;;;;;;;;5034361;28;20415;-81
2024/01/30 08:09:43;;;;;;;13.30;6.82;;;;;;;;;;5030979;28;20475;-81
2024/01/30 08:12:09;;;;;;;11.38;6.57;;;;;;;;;;5027595;28;20029;-82
2024/01/30 08:14:34;;;;;;;9.80;6.50;;;;;;;;;;5030804;28;20060;-82
2024/01/30 08:17:00;;;;;;;14.23;6.43;;;;;;;;;;5027269;28;20025;-82
2024/01/30 08:19:25;;;;;;;10.15;6.22;;;;;;;;;;5035859;28;20022;-82
2024/01/30 08:21:50;;;;;;;10.57;6.35;;;;;;;;;;5024388;28;20030;-81
2024/01/30 08:24:17;;;;;;;7.75;5.70;;;;;;;;;;5015361;28;20032;-82
2024/01/30 08:26:43;;;;;;;11.80;6.47;;;;;;;;;;5026669;28;20044;-81
2024/01/30 08:29:08;;;;;;;9.30;5.95;;;;;;;;;;5035087;28;20060;-82
2024/01/30 08:31:34;;;;;;;9.23;6.15;;;;;;;;;;5024800;28;20116;-82
2024/01/30 08:33:59;;;;;;;10.43;6.00;;;;;;;;;;5021059;28;20083;-81
2024/01/30 08:36:25;;;;;;;10.88;6.38;;;;;;;;;;5009466;28;20036;-81
2024/01/30 08:38:50;;;;;;;9.93;6.25;;;;;;;;;;5025375;28;20034;-80
2024/01/30 08:41:15;;;;;;;9.30;5.78;;;;;;;;;;5021474;28;20082;-81
2024/01/30 08:43:41;;;;;;;10.55;6.53;;;;;;;;;;5014799;28;20471;-80
2024/01/30 08:46:06;;;;;;;10.98;6.45;;;;;;;;;;5018465;28;20033;-80
2024/01/30 08:48:32;;;;;;;11.05;6.40;;;;;;;;;;5021581;28;20026;-81
2024/01/30 08:50:57;;;;;;;10.90;6.90;;;;;;;;;;5023743;28;20470;-80
2024/01/30 08:53:22;;;;;;;10.35;6.75;;;;;;;;;;5027723;28;20495;-81
2024/01/30 08:55:48;;;;;;;12.15;6.60;;;;;;;;;;5024303;28;20036;-80
2024/01/30 08:58:13;;;;;;;9.70;6.45;;;;;;;;;;5027831;28;20059;-80
2024/01/30 09:00:39;;;;;;;11.65;6.65;;;;;;;;;;5034602;28;20078;-79
2024/01/30 09:03:04;;;;;;;11.63;5.85;;;;;;;;;;5029546;28;20063;-81
2024/01/30 09:05:30;;;;;;;12.35;6.63;;;;;;;;;;5030358;28;20032;-80
2024/01/30 09:07:55;;;;;;;13.98;7.40;;;;;;;;;;5026473;28;20124;-80
2024/01/30 09:10:21;;;;;;;12.60;6.55;;;;;;;;;;5028393;28;20458;-80
2024/01/30 09:12:47;;;;;;;10.95;6.32;;;;;;;;;;5030741;28;20029;-80
2024/01/30 09:15:12;;;;;;;14.85;7.40;;;;;;;;;;5023946;28;20088;-80
2024/01/30 09:17:38;;;;;;;11.00;7.00;;;;;;;;;;5026228;28;20036;-80
2024/01/30 09:20:05;;;;;;;11.38;7.03;;;;;;;;;;5027966;28;20443;-80
2024/01/30 09:22:31;;;;;;;10.98;6.47;;;;;;;;;;5027048;28;20038;-80
2024/01/30 09:24:57;;;;;;;13.93;6.63;;;;;;;;;;5021547;28;20079;-80
2024/01/30 09:27:22;;;;;;;12.45;6.32;;;;;;;;;;5029035;28;20045;-80
2024/01/30 09:29:47;;;;;;;12.57;6.75;;;;;;;;;;5029260;28;20039;-81
2024/01/30 09:32:13;;;;;;;11.35;6.43;;;;;;;;;;5027143;28;20384;-80
2024/01/30 09:34:39;;;;;;;11.05;6.65;;;;;;;;;;5021440;28;20065;-81
2024/01/30 09:37:05;;;;;;;12.88;6.40;;;;;;;;;;5020877;28;20807;-80
2024/01/30 09:39:30;;;;;;;9.90;6.22;;;;;;;;;;5032103;28;20029;-80
2024/01/30 09:42:32;;;;;;;11.82;6.70;;;;;;;;;;5027308;28;20083;-81
2024/01/30 09:44:58;;;;;;;10.50;6.60;;;;;;;;;;5025087;28;20045;-81
2024/01/30 09:47:24;;;;;;;10.85;6.18;;;;;;;;;;5029599;28;20033;-81
2024/01/30 09:49:51;;;;;;;13.52;6.60;;;;;;;;;;5030288;28;20025;-81
2024/01/30 09:52:16;;;;;;;13.02;6.90;;;;;;;;;;5025185;28;20114;-81
2024/01/30 09:54:42;;;;;;;11.32;7.05;;;;;;;;;;5008011;28;20086;-81
2024/01/30 09:57:08;;;;;;;11.48;6.60;;;;;;;;;;5022589;28;20040;-81
2024/01/30 09:59:33;;;;;;;10.25;6.63;;;;;;;;;;5021817;28;20162;-81
2024/01/30 10:02:00;;;;;;;13.80;6.70;;;;;;;;;;5022475;28;20497;-81
2024/01/30 10:04:26;;;;;;;11.18;6.70;;;;;;;;;;5026417;28;20467;-81
2024/01/30 10:06:51;;;;;;;10.52;6.00;;;;;;;;;;5029419;28;20029;-81
2024/01/30 10:09:16;;;;;;;13.07;6.75;;;;;;;;;;5028093;28;20029;-81
2024/01/30 10:11:42;;;;;;;11.27;6.55;;;;;;;;;;5023963;28;20038;-82
2024/01/30 10:14:08;;;;;;;12.48;7.10;;;;;;;;;;5028833;28;20063;-82
2024/01/30 10:16:34;;;;;;;11.15;6.55;;;;;;;;;;5022143;28;20053;-82
2024/01/30 10:19:00;;;;;;;10.70;6.18;;;;;;;;;;5030782;28;20044;-82
2024/01/30 10:21:25;;;;;;;11.98;6.82;;;;;;;;;;5047424;28;20028;-79
2024/01/30 10:23:51;;;;;;;11.63;7.05;;;;;;;;;;5023601;28;20056;-82
2024/01/30 10:26:17;;;;;;;11.48;6.82;;;;;;;;;;5024421;28;20385;-82
2024/01/30 10:28:43;;;;;;;11.90;6.57;;;;;;;;;;5030270;28;20033;-82
2024/01/30 10:31:08;;;;;;;12.60;7.20;;;;;;;;;;5025710;28;20442;-81
2024/01/30 10:33:34;;;;;;;14.18;7.40;;;;;;;;;;5018218;28;20412;-79
2024/01/30 10:36:04;;;;;;;11.82;6.95;;;;;;;;;;5028497;28;20135;-82
2024/01/30 10:38:30;;;;;;;12.40;7.32;;;;;;;;;;5031816;28;20040;-82
2024/01/30 10:41:06;;;;;;;13.50;7.05;;;;;;;;;;5026998;28;20048;-82
2024/01/30 10:43:35;;;;;;;13.20;7.13;;;;;;;;;;5022653;28;20033;-82
2024/01/30 10:46:17;;;;;;;11.50;6.55;;;;;;;;;;5011967;28;20028;-82
2024/01/30 10:48:48;;;;;;;12.45;7.07;;;;;;;;;;5024803;28;20049;-82
2024/01/30 10:51:14;;;;;;;11.27;6.72;;;;;;;;;;5027069;28;20036;-82
2024/01/30 10:53:41;;;;;;;11.68;6.95;;;;;;;;;;5021505;28;20383;-81
2024/01/30 10:56:08;;;;;;;10.52;6.88;;;;;;;;;;5021629;28;20041;-81
2024/01/30 10:58:33;;;;;;;17.20;6.50;;;;;;;;;;5025892;28;20041;-79
2024/01/30 11:00:59;;;;;;;11.13;6.55;;;;;;;;;;5031222;28;20399;-82
2024/01/30 11:03:27;;;;;;;9.93;6.18;;;;;;;;;;5025776;28;20045;-82
2024/01/30 11:05:53;;;;;;;11.02;6.43;;;;;;;;;;5018185;28;20040;-81
2024/01/30 11:08:25;;;;;;;12.77;6.43;;;;;;;;;;5030294;28;20029;-80
2024/01/30 11:10:56;;;;;;;9.25;6.50;;;;;;;;;;5017380;28;20583;-82
2024/01/30 11:13:21;;;;;;;11.38;6.57;;;;;;;;;;5026788;28;20044;-81
2024/01/30 11:15:50;;;;;;;9.88;6.63;;;;;;;;;;5020707;28;20029;-82
2024/01/30 11:18:26;;;;;;;13.48;7.45;;;;;;;;;;5026482;28;20030;-82
2024/01/30 11:20:51;;;;;;;11.98;6.97;;;;;;;;;;5022637;28;20084;-82
2024/01/30 11:23:17;;;;;;;10.30;7.15;;;;;;;;;;5039929;28;20484;-81
2024/01/30 11:25:44;;;;;;;10.40;6.70;;;;;;;;;;5026090;28;20056;-81
2024/01/30 11:28:15;;;;;;;13.88;7.30;;;;;;;;;;5025135;28;20058;-82
2024/01/30 11:30:42;;;;;;;11.27;7.50;;;;;;;;;;5019113;28;20040;-80
2024/01/30 11:33:12;;;;;;;10.07;7.25;;;;;;;;;;5023246;28;20033;-80
2024/01/30 11:35:42;;;;;;;12.57;7.15;;;;;;;;;;5021508;28;20108;-80
2024/01/30 11:38:09;;;;;;;11.20;7.10;;;;;;;;;;5020820;28;20530;-80
2024/01/30 11:40:37;;;;;;;12.02;6.45;;;;;;;;;;5012941;28;20109;-80
2024/01/30 11:43:05;;;;;;;8.70;5.85;;;;;;;;;;5028635;28;20034;-80
2024/01/30 11:45:32;;;;;;;11.60;5.97;;;;;;;;;;5017011;28;20029;-80
2024/01/30 11:48:03;;;;;;;9.40;5.60;;;;;;;;;;5018131;28;20026;-80
2024/01/30 11:50:29;;;;;;;8.27;5.68;;;;;;;;;;5026559;28;20029;-80
2024/01/30 11:52:56;;;;;;;9.05;5.40;;;;;;;;;;5027507;28;20026;-80
2024/01/30 11:55:21;;;;;;;10.82;5.60;;;;;;;;;;5018148;28;20095;-80
2024/01/30 11:57:47;;;;;;;10.65;6.25;;;;;;;;;;5034490;28;20037;-81
2024/01/30 12:00:16;;;;;;;12.20;5.75;;;;;;;;;;5022781;28;20124;-81
2024/01/30 12:02:42;;;;;;;8.82;5.50;;;;;;;;;;5018025;28;20578;-81
2024/01/30 12:05:11;;;;;;;8.57;4.65;;;;;;;;;;5025089;28;20033;-80
2024/01/30 12:07:37;;;;;;;10.18;4.22;;;;;;;;;;5007411;28;20045;-80
2024/01/30 12:10:03;;;;;;;6.93;3.45;;;;;;;;;;5027506;28;20025;-82
2024/01/30 12:12:29;;;;;;;6.85;2.80;;;;;;;;;;5018035;28;20450;-82
2024/01/30 12:14:57;;;;;;;6.22;2.78;;;;;;;;;;5016934;28;20487;-83
2024/01/30 12:17:34;;;;;;;5.00;1.90;;;;;;;;;;5026396;28;20296;-83
2024/01/30 12:20:21;;;;;;;7.15;2.25;;;;;;;;;;5019735;28;20068;-83
2024/01/30 12:22:48;;;;;;;4.70;2.40;;;;;;;;;;5018490;28;20075;-83
2024/01/30 12:25:18;;;;;;;8.88;2.90;;;;;;;;;;5019247;28;20053;-81
2024/01/30 12:27:51;;;;;;;7.63;3.78;;;;;;;;;;4997254;28;20084;-81
2024/01/30 12:30:17;;;;;;;6.95;3.08;;;;;;;;;;5017825;28;20032;-81
2024/01/30 12:32:47;;;;;;;7.95;2.30;;;;;;;;;;5022500;28;20061;-81
2024/01/30 12:35:18;;;;;;;4.25;1.60;;;;;;;;;;5034358;28;20037;-81
2024/01/30 12:37:45;;;;;;;5.80;1.65;;;;;;;;;;5028249;28;20037;-81
2024/01/30 12:40:14;;;;;;;7.53;1.70;;;;;;;;;;5025355;28;20422;-81
2024/01/30 12:42:40;;;;;;;5.93;1.50;;;;;;;;;;5031607;28;20037;-81
2024/01/30 12:45:06;;;;;;;8.27;1.40;;;;;;;;;;5030154;28;20029;-81
2024/01/30 12:47:32;;;;;;;5.32;1.27;;;;;;;;;;5027899;28;20025;-81
2024/01/30 12:49:57;;;;;;;2.90;1.15;;;;;;;;;;5018562;28;20347;-80
2024/01/30 12:52:23;;;;;;;3.17;1.00;;;;;;;;;;5028964;28;20041;-81
2024/01/30 12:54:49;;;;;;;6.75;1.00;;;;;;;;;;5022999;28;20112;-81
2024/01/30 12:57:18;;;;;;;2.80;1.00;;;;;;;;;;5028733;28;20029;-81
2024/01/30 12:59:44;;;;;;;2.38;1.05;;;;;;;;;;5026371;28;20025;-81
2024/01/30 13:02:10;;;;;;;3.50;1.23;;;;;;;;;;5025298;28;20040;-81
2024/01/30 13:04:36;;;;;;;4.20;1.00;;;;;;;;;;5023670;28;20034;-81
2024/01/30 13:07:02;;;;;;;2.22;0.80;;;;;;;;;;5027952;28;20530;-81
2024/01/30 13:09:31;;;;;;;1.35;0.70;;;;;;;;;;5005592;28;20116;-81
2024/01/30 13:11:56;;;;;;;2.80;1.00;;;;;;;;;;5029980;28;20060;-81
2024/01/30 13:14:24;;;;;;;4.35;1.60;;;;;;;;;;5021907;28;20758;-81
2024/01/30 13:16:49;;;;;;;2.10;0.60;;;;;;;;;;5018578;28;20390;-81
2024/01/30 13:19:14;;;;;;;3.20;0.88;;;;;;;;;;5031821;28;20514;-80
2024/01/30 13:21:40;;;;;;;4.00;0.68;;;;;;;;;;5034597;28;20036;-80
2024/01/30 13:24:06;;;;;;;2.42;0.85;;;;;;;;;;5028577;28;20430;-79
2024/01/30 13:26:34;;;;;;;1.50;0.70;;;;;;;;;;5020307;28;20048;-80
2024/01/30 13:29:00;;;;;;;3.00;0.90;;;;;;;;;;5027733;28;20087;-80
2024/01/30 13:31:27;;;;;;;2.08;0.80;;;;;;;;;;5027345;28;20388;-80
2024/01/30 13:33:52;;;;;;;2.88;1.10;;;;;;;;;;5026101;28;20025;-80
2024/01/30 13:36:19;;;;;;;3.33;1.20;;;;;;;;;;5031579;28;20043;-80
2024/01/30 13:38:45;;;;;;;5.55;1.92;;;;;;;;;;5023508;28;20025;-80
2024/01/30 13:41:10;;;;;;;7.95;2.80;;;;;;;;;;5027023;28;20040;-80
2024/01/30 13:43:36;;;;;;;7.30;3.13;;;;;;;;;;5027006;28;20043;-80
2024/01/30 13:46:01;;;;;;;9.00;3.45;;;;;;;;;;5025028;28;20040;-80
2024/01/30 13:48:27;;;;;;;9.73;3.88;;;;;;;;;;5027658;28;20057;-80
2024/01/30 13:50:54;;;;;;;6.97;3.65;;;;;;;;;;5029849;28;20036;-80
2024/01/30 13:53:19;;;;;;;8.57;4.00;;;;;;;;;;5024296;28;20045;-80
2024/01/30 13:55:44;;;;;;;8.82;3.67;;;;;;;;;;5018579;28;20163;-80
2024/01/30 13:58:10;;;;;;;13.20;4.00;;;;;;;;;;5021590;28;20029;-80
2024/01/30 14:00:36;;;;;;;12.43;3.60;;;;;;;;;;5025528;28;20452;-80
2024/01/30 14:03:03;;;;;;;10.13;3.70;;;;;;;;;;5020151;28;20033;-80
2024/01/30 14:05:28;;;;;;;9.40;3.63;;;;;;;;;;5031228;28;20029;-80
2024/01/30 14:07:55;;;;;;;7.60;4.05;;;;;;;;;;5027815;28;20048;-80
2024/01/30 14:10:21;;;;;;;4.68;3.40;;;;;;;;;;5019316;28;20057;-80
2024/01/30 14:12:47;;;;;;;6.82;3.92;;;;;;;;;;5022068;28;20533;-80
2024/01/30 14:15:23;;;;;;;9.32;4.50;;;;;;;;;;5030464;28;20040;-80
2024/01/30 14:17:49;;;;;;;9.32;4.07;;;;;;;;;;5023452;28;20025;-80
2024/01/30 14:20:19;;;;;;;7.15;4.20;;;;;;;;;;5033709;28;20032;-80
2024/01/30 14:22:47;;;;;;;8.23;4.60;;;;;;;;;;5029764;28;20044;-80
2024/01/30 14:25:12;;;;;;;7.53;4.55;;;;;;;;;;5032726;28;20533;-80
2024/01/30 14:27:38;;;;;;;7.72;4.68;;;;;;;;;;5022989;28;20033;-80
2024/01/30 14:30:04;;;;;;;10.40;4.70;;;;;;;;;;5011967;28;20704;-81
2024/01/30 14:32:30;;;;;;;8.38;4.28;;;;;;;;;;5038149;28;20026;-81